Flight Track Log - Related Links

Times and Time Zones

All times are in EDT time to prevent confusion due to time zone crossing. See the SWA34 flight status page for this flight to view local times or setup timezone preferences in your user account.

Time Position Orientation Groundspeed Altitude Reporting Facility
EDT Latitude Longitude Course Direction KTS MPH feet Rate Location/Type
Wed 07:01:40 AM 26.0750 -80.1367 83° East 176 203 800  Level Miami Center
Wed 07:02:29 AM 26.0803 -80.0883 83° East 210 242 2,600 2,564 Climbing Miami Center
Wed 07:03:30 AM 26.0900 -80.0192 81° East 227 261 5,500 2,607 Climbing Miami Center
Wed 07:04:31 AM 26.1483 -80.0344 347° North 255 293 7,900 2,154 Climbing Miami Center
Wed 07:05:27 AM 26.2075 -80.0917 319° Northwest 290 334 9,700 2,224 Climbing Miami Center
Wed 07:06:27 AM 26.2711 -80.1467 322° Northwest 307 353 12,200 2,800 Climbing Miami Center
Wed 07:07:27 AM 26.3447 -80.2114 322° Northwest 331 381 15,300 2,750 Climbing Miami Center
Wed 07:08:27 AM 26.4228 -80.2739 324° Northwest 343 395 17,700 2,300 Climbing Miami Center
Wed 07:09:27 AM 26.5072 -80.3158 336° Northwest 355 409 19,900 2,200 Climbing Miami Center
Wed 07:10:27 AM 26.6147 -80.3678 337° Northwest 373 429 22,100 2,000 Climbing Miami Center
Wed 07:11:27 AM 26.7056 -80.4122 336° Northwest 388 447 23,900 1,850 Climbing Miami Center
Wed 07:12:27 AM 26.8169 -80.4692 335° Northwest 399 459 25,800 1,700 Climbing Miami Center
Wed 07:13:27 AM 26.9242 -80.5236 336° Northwest 405 466 27,300 1,550 Climbing Miami Center
Wed 07:14:27 AM 27.0314 -80.5761 336° Northwest 410 472 28,900 1,750 Climbing Miami Center
Wed 07:15:27 AM 27.1406 -80.6308 336° Northwest 417 480 30,800 1,050 Climbing Miami Center
Wed 07:16:27 AM 27.2497 -80.6858 336° Northwest 417 480 31,000 100 Climbing Miami Center
Wed 07:17:27 AM 27.3631 -80.7411 337° Northwest 427 491 31,000  Level Miami Center
Wed 07:18:27 AM 27.4744 -80.7964 336° Northwest 427 491 31,000  Level Miami Center
Wed 07:19:27 AM 27.5897 -80.8517 337° Northwest 434 499 31,000  Level Miami Center
Wed 07:20:27 AM 27.6967 -80.9072 335° Northwest 434 499 31,000  Level Miami Center
Wed 07:21:27 AM 27.8078 -80.9650 335° Northwest 434 499 31,000  Level Miami Center
Wed 07:22:27 AM 27.9211 -81.0183 337° Northwest 434 499 31,000  Level Miami Center
Wed 07:23:27 AM 28.0239 -81.0717 335° Northwest 445 512 31,000  Level Miami Center
Wed 07:24:27 AM 28.1472 -81.1350 336° Northwest 445 512 31,000  Level Miami Center
Wed 07:25:27 AM 28.2581 -81.1933 335° Northwest 440 506 31,000  Level Miami Center
Wed 07:26:27 AM 28.3486 -81.2394 336° Northwest 440 506 31,000  Level Miami Center
Wed 07:26:51 AM 28.4047 -81.2642 339° North 441 507 31,000  Level Jacksonville Center
Wed 07:27:51 AM 28.5139 -81.3217 335° Northwest 441 507 31,000 -500 Level Jacksonville Center
Wed 07:28:51 AM 28.6331 -81.3481 349° North 441 507 30,000 -1,350 Descending Jacksonville Center
Wed 07:29:51 AM 28.7544 -81.3603 355° North 435 501 28,300 -1,400 Descending Jacksonville Center
Wed 07:30:51 AM 28.8633 -81.3919 346° North 419 482 27,200 -1,200 Descending Jacksonville Center
Wed 07:31:51 AM 28.9703 -81.4450 337° Northwest 412 474 25,900 -1,361 Descending Jacksonville Center
Wed 07:32:50 AM 29.0775 -81.5028 335° Northwest 419 482 24,500 -1,400 Descending Jacksonville Center
Wed 07:33:51 AM 29.1803 -81.5511 338° Northwest 412 474 23,100 -1,488 Descending Jacksonville Center
Wed 07:34:51 AM 29.2975 -81.5806 348° North 400 460 21,500 -1,800 Descending Jacksonville Center
Wed 07:35:51 AM 29.4019 -81.5958 353° North 379 436 19,500 -1,900 Descending Jacksonville Center
Wed 07:36:51 AM 29.5022 -81.6111 352° North 367 422 17,700 -1,750 Descending Jacksonville Center
Wed 07:37:51 AM 29.5983 -81.6267 352° North 356 410 16,000 -1,250 Descending Jacksonville Center
Wed 07:38:51 AM 29.6925 -81.6422 352° North 349 402 15,200 -2,034 Descending Jacksonville Center
Wed 07:39:49 AM 29.7906 -81.6456 358° North 367 422 12,000 -2,600 Descending Jacksonville Center
Wed 07:40:51 AM 29.8931 -81.6586 354° North 354 407 10,000 -1,289 Descending Jacksonville Center
Wed 07:41:50 AM 29.9728 -81.6817 346° North 284 327 9,400 -900 Descending Jacksonville Center
Wed 07:42:51 AM 30.0522 -81.7072 344° North 285 328 8,200 -1,180 Descending Jacksonville Center
Wed 07:43:52 AM 30.1297 -81.7325 344° North 286 329 7,000 -1,180 Descending Jacksonville Center
Wed 07:44:53 AM 30.2031 -81.7558 345° North 279 321 5,800 -984 Descending Jacksonville Center
Wed 07:45:54 AM 30.2783 -81.7789 345° North 279 321 5,000 -397 Descending Jacksonville Center
Wed 07:46:54 AM 30.3517 -81.8044 343° North 267 307 5,000 -298 Level Jacksonville Center
Wed 07:47:55 AM 30.4208 -81.8253 345° North 256 295 4,400 -1,082 Descending Jacksonville Center
Wed 07:48:56 AM 30.4919 -81.8536 341° North 262 302 2,800 -1,190 Descending Jacksonville Center
Wed 07:49:56 AM 30.5611 -81.8697 349° North 250 288 2,000 -397 Descending Jacksonville Center
Wed 07:50:57 AM 30.5689 -81.8117 81° East 194 223 2,000 -295 Level Jacksonville Center
Wed 07:51:58 AM 30.5392 -81.7686 129° Southeast 149 171 1,400 -590 Descending Jacksonville Center
Wed 07:52:59 AM 30.5161 -81.7375 131° Southeast 122 140 800 -590 Descending Jacksonville Center
Wed 07:54:00 AM 30.4941 -81.6879 130° Southeast  Level Estimated
Wed 08:01:00 AM 30.4941 -81.6879 130° Southeast  Level Estimated
Wed 08:02:00 AM 30.4941 -81.6879 130° Southeast  Level Estimated

Login

Don't have an account? Register now (free) for customized features, flight alerts, and more!